Time;durP1;ratioP1;P1;durP2;ratioP2;P2;SDS_P1;SDS_P2;PMS_P1;PMS_P2;Temp;Humidity;BMP_temperature;BMP_pressure;BME280_temperature;BME280_humidity;BME280_pressure;Samples;Min_cycle;Max_cycle;Signal;HPM_P1;HPM_P2
2023/07/29 00:01:00;;;;;;;8.73;5.85;;;19.50;99.90;;;;;;5012569;28;20049;-62
2023/07/29 00:03:25;;;;;;;9.05;6.75;;;19.50;99.90;;;;;;4989003;28;20053;-62
2023/07/29 00:05:51;;;;;;;9.35;6.35;;;19.50;99.90;;;;;;4994364;28;20046;-62
2023/07/29 00:08:17;;;;;;;9.48;6.57;;;19.40;99.90;;;;;;5003270;28;20088;-60
2023/07/29 00:10:43;;;;;;;10.68;6.20;;;19.50;99.90;;;;;;4991601;28;20062;-60
2023/07/29 00:13:08;;;;;;;9.40;5.60;;;19.40;99.90;;;;;;4999796;28;20061;-62
2023/07/29 00:15:34;;;;;;;8.02;5.32;;;19.40;99.90;;;;;;4997223;28;20624;-62
2023/07/29 00:18:00;;;;;;;8.10;5.10;;;19.40;99.90;;;;;;4985156;28;20218;-62
2023/07/29 00:20:26;;;;;;;8.13;5.60;;;19.40;99.90;;;;;;5000379;28;20050;-63
2023/07/29 00:22:55;;;;;;;10.88;6.28;;;19.30;99.90;;;;;;5005028;28;20041;-61
2023/07/29 00:25:21;;;;;;;9.02;5.47;;;19.40;99.90;;;;;;5003217;28;20041;-63
2023/07/29 00:27:47;;;;;;;9.75;5.72;;;19.40;99.90;;;;;;4993755;28;20034;-61
2023/07/29 00:30:13;;;;;;;9.23;5.40;;;19.30;99.90;;;;;;5008802;28;20523;-62
2023/07/29 00:32:39;;;;;;;9.98;5.20;;;19.30;99.90;;;;;;5006071;28;20497;-61
2023/07/29 00:35:05;;;;;;;7.63;5.78;;;19.30;99.90;;;;;;5006617;28;20037;-61
2023/07/29 00:37:31;;;;;;;7.25;5.65;;;19.30;99.90;;;;;;5003393;28;20472;-62
2023/07/29 00:39:58;;;;;;;8.57;6.25;;;19.30;99.90;;;;;;4990478;28;20043;-61
2023/07/29 00:42:24;;;;;;;8.90;5.15;;;19.30;99.90;;;;;;4978962;28;20054;-62
2023/07/29 00:44:50;;;;;;;8.07;5.90;;;19.20;99.90;;;;;;5004962;28;20690;-62
2023/07/29 00:47:16;;;;;;;8.55;6.30;;;19.20;99.90;;;;;;4983297;28;20042;-63
2023/07/29 00:49:44;;;;;;;8.55;6.55;;;19.20;99.90;;;;;;5005668;28;20069;-62
2023/07/29 00:52:12;;;;;;;6.50;5.53;;;19.20;99.90;;;;;;4990256;28;20074;-61
2023/07/29 00:54:42;;;;;;;9.60;5.82;;;19.20;99.90;;;;;;4993077;28;20041;-61
2023/07/29 00:57:09;;;;;;;11.50;6.75;;;19.20;99.90;;;;;;5007726;28;20033;-61
2023/07/29 00:59:36;;;;;;;9.15;5.78;;;19.20;99.90;;;;;;4990103;28;20042;-62
2023/07/29 01:02:02;;;;;;;9.02;6.43;;;19.20;99.90;;;;;;5004270;28;20034;-63
2023/07/29 01:04:28;;;;;;;10.38;7.28;;;19.20;99.90;;;;;;5011380;28;20100;-61
2023/07/29 01:07:05;;;;;;;11.43;8.07;;;19.20;99.90;;;;;;5001726;28;20037;-61
2023/07/29 01:09:44;;;;;;;9.13;7.00;;;19.20;99.90;;;;;;4991329;28;20315;-63
2023/07/29 01:12:31;;;;;;;10.55;8.35;;;19.10;99.90;;;;;;4999802;28;20389;-62
2023/07/29 01:14:57;;;;;;;11.82;8.40;;;19.10;99.90;;;;;;5014490;28;20038;-62
2023/07/29 01:17:32;;;;;;;11.73;9.02;;;19.10;99.90;;;;;;5007262;28;20034;-62
2023/07/29 01:20:03;;;;;;;14.05;9.73;;;19.10;99.90;;;;;;4994124;28;20408;-62
2023/07/29 01:22:30;;;;;;;10.77;8.82;;;19.10;99.90;;;;;;5010423;28;20131;-61
2023/07/29 01:24:58;;;;;;;14.48;9.77;;;19.00;99.90;;;;;;4994821;28;20069;-60
2023/07/29 01:27:23;;;;;;;12.93;10.55;;;19.10;99.90;;;;;;5007967;28;20080;-61
2023/07/29 01:29:49;;;;;;;13.10;10.13;;;19.00;99.90;;;;;;5017236;28;20069;-61
2023/07/29 01:32:22;;;;;;;15.88;10.40;;;19.00;99.90;;;;;;4993750;28;20049;-62
2023/07/29 01:35:02;;;;;;;18.63;11.65;;;19.00;99.90;;;;;;5012991;28;20600;-62
2023/07/29 01:37:32;;;;;;;11.90;10.02;;;19.00;99.90;;;;;;5005750;28;20642;-62
2023/07/29 01:40:00;;;;;;;12.90;10.38;;;19.00;99.90;;;;;;5013086;28;20501;-61
2023/07/29 01:42:26;;;;;;;11.82;9.95;;;19.00;99.90;;;;;;5007199;28;20041;-61
2023/07/29 01:44:52;;;;;;;14.20;10.35;;;19.00;99.90;;;;;;5016807;28;20396;-63
2023/07/29 01:47:18;;;;;;;12.13;9.20;;;19.00;99.90;;;;;;4990846;28;20061;-62
2023/07/29 01:49:44;;;;;;;12.50;8.95;;;19.00;99.90;;;;;;5007553;28;20050;-61
2023/07/29 01:52:10;;;;;;;11.73;9.32;;;19.00;99.90;;;;;;4988204;28;20519;-61
2023/07/29 01:54:35;;;;;;;10.52;8.13;;;18.90;99.90;;;;;;5008644;28;20095;-61
2023/07/29 01:57:01;;;;;;;12.30;9.82;;;19.00;99.90;;;;;;5010506;28;20041;-62
2023/07/29 01:59:27;;;;;;;12.02;8.90;;;18.90;99.90;;;;;;5009496;28;20054;-61
2023/07/29 02:01:52;;;;;;;10.73;8.07;;;18.90;99.90;;;;;;5008035;28;20045;-60
2023/07/29 02:04:18;;;;;;;15.90;9.30;;;18.90;99.90;;;;;;5006087;28;20096;-61
2023/07/29 02:06:44;;;;;;;13.10;8.77;;;18.90;99.90;;;;;;4975651;28;20169;-61
2023/07/29 02:09:09;;;;;;;9.75;7.72;;;18.90;99.90;;;;;;4988159;28;20489;-62
2023/07/29 02:11:35;;;;;;;11.13;8.73;;;18.90;99.90;;;;;;5006553;28;20455;-62
2023/07/29 02:14:04;;;;;;;8.82;7.47;;;18.80;99.90;;;;;;5003014;28;20042;-62
2023/07/29 02:16:30;;;;;;;12.23;8.32;;;18.80;99.90;;;;;;5006565;28;20498;-62
2023/07/29 02:18:55;;;;;;;10.48;7.38;;;18.80;99.90;;;;;;5007251;28;20042;-61
2023/07/29 02:21:21;;;;;;;10.05;8.27;;;18.80;99.90;;;;;;4994273;28;20136;-63
2023/07/29 02:23:47;;;;;;;8.77;7.72;;;18.70;99.90;;;;;;4984613;28;20043;-62
2023/07/29 02:26:13;;;;;;;11.10;9.20;;;18.70;99.90;;;;;;5006081;28;20045;-63
2023/07/29 02:28:38;;;;;;;12.45;9.52;;;18.70;99.90;;;;;;4989773;28;20116;-62
2023/07/29 02:31:20;;;;;;;12.75;10.05;;;18.70;99.90;;;;;;4992976;28;20048;-62
2023/07/29 02:33:46;;;;;;;13.55;10.75;;;18.70;99.90;;;;;;5006375;28;20038;-60
2023/07/29 02:36:13;;;;;;;14.18;10.82;;;18.60;99.90;;;;;;4996447;28;20038;-60
2023/07/29 02:38:40;;;;;;;16.73;10.60;;;18.60;99.90;;;;;;4975739;28;20034;-61
2023/07/29 02:41:06;;;;;;;13.38;10.23;;;18.60;99.90;;;;;;5007927;28;20516;-62
2023/07/29 02:43:32;;;;;;;16.52;10.50;;;18.50;99.90;;;;;;4987611;28;20507;-62
2023/07/29 02:46:00;;;;;;;14.38;10.95;;;18.50;99.90;;;;;;4991460;28;20033;-63
2023/07/29 02:48:29;;;;;;;14.55;10.52;;;18.50;99.90;;;;;;4998089;28;20030;-62
2023/07/29 02:50:55;;;;;;;12.15;9.02;;;18.50;99.90;;;;;;4996710;28;20191;-61
2023/07/29 02:53:22;;;;;;;12.57;8.85;;;18.40;99.90;;;;;;5012738;28;20128;-61
2023/07/29 02:55:48;;;;;;;11.20;8.32;;;18.40;99.90;;;;;;4990419;28;20068;-62
2023/07/29 02:58:14;;;;;;;9.45;8.30;;;18.40;99.90;;;;;;5004741;28;20042;-64
2023/07/29 03:00:41;;;;;;;10.45;8.07;;;18.40;99.90;;;;;;5010863;28;20417;-62
2023/07/29 03:03:10;;;;;;;12.20;7.57;;;18.30;99.90;;;;;;5006802;28;20369;-62
2023/07/29 03:05:38;;;;;;;10.75;7.50;;;18.30;99.90;;;;;;4968094;28;20522;-61
2023/07/29 03:08:04;;;;;;;9.13;7.20;;;18.30;99.90;;;;;;4966303;28;20038;-60
2023/07/29 03:10:32;;;;;;;8.90;6.82;;;18.30;99.90;;;;;;5004897;28;20042;-61
2023/07/29 03:12:58;;;;;;;8.23;5.95;;;18.20;99.90;;;;;;4989508;28;20042;-60
2023/07/29 03:15:27;;;;;;;9.55;6.32;;;18.20;99.90;;;;;;5003692;28;20040;-64
2023/07/29 03:17:53;;;;;;;10.38;6.78;;;18.20;99.90;;;;;;5004196;28;20579;-61
2023/07/29 03:20:19;;;;;;;8.35;6.18;;;18.20;99.90;;;;;;5007750;28;20100;-61
2023/07/29 03:22:45;;;;;;;12.77;6.75;;;18.20;99.90;;;;;;4976825;28;20038;-62
2023/07/29 03:25:11;;;;;;;9.30;5.07;;;18.10;99.90;;;;;;5006974;28;20060;-62
2023/07/29 03:27:37;;;;;;;11.18;6.13;;;18.10;99.90;;;;;;5001338;28;20030;-62
2023/07/29 03:30:04;;;;;;;10.13;5.32;;;18.10;99.90;;;;;;5007023;28;20046;-62
2023/07/29 03:32:29;;;;;;;7.88;5.07;;;18.10;99.90;;;;;;5001085;28;20626;-63
2023/07/29 03:34:55;;;;;;;11.02;4.78;;;18.00;99.90;;;;;;4983247;28;20128;-63
2023/07/29 03:37:21;;;;;;;8.77;4.78;;;18.00;99.90;;;;;;5002376;28;20034;-62
2023/07/29 03:39:47;;;;;;;10.00;4.85;;;18.00;99.90;;;;;;5003654;28;20074;-62
2023/07/29 03:42:13;;;;;;;10.35;4.13;;;18.00;99.90;;;;;;5002806;28;20057;-61
2023/07/29 03:44:42;;;;;;;5.78;3.90;;;18.00;99.90;;;;;;5002775;28;20398;-61
2023/07/29 03:47:10;;;;;;;9.02;4.47;;;18.00;99.90;;;;;;5010745;28;20045;-61
2023/07/29 03:49:36;;;;;;;7.30;3.47;;;18.00;99.90;;;;;;5008220;28;20034;-62
2023/07/29 03:52:02;;;;;;;8.10;4.25;;;17.90;99.90;;;;;;4966501;28;20045;-61
2023/07/29 03:54:31;;;;;;;6.32;3.03;;;17.90;99.90;;;;;;5008792;28;20041;-61
2023/07/29 03:56:57;;;;;;;7.43;3.33;;;17.90;99.90;;;;;;5002651;28;20038;-62
2023/07/29 03:59:22;;;;;;;6.13;2.97;;;17.80;99.90;;;;;;5006875;28;20796;-60
2023/07/29 04:01:48;;;;;;;10.00;3.47;;;17.80;99.90;;;;;;4989461;28;20040;-61
2023/07/29 04:04:14;;;;;;;6.05;2.97;;;17.80;99.90;;;;;;5008367;28;20029;-61
2023/07/29 04:06:39;;;;;;;8.45;3.00;;;17.80;99.90;;;;;;5001580;28;20100;-61
2023/07/29 04:09:05;;;;;;;8.18;3.50;;;17.80;99.90;;;;;;5007401;28;20485;-63
2023/07/29 04:11:31;;;;;;;6.82;3.13;;;17.70;99.90;;;;;;4986837;28;20052;-60
2023/07/29 04:13:57;;;;;;;7.65;2.95;;;17.70;99.90;;;;;;5010133;28;20498;-62
2023/07/29 04:16:22;;;;;;;6.30;2.78;;;17.70;99.90;;;;;;4981563;28;20050;-61
2023/07/29 04:18:48;;;;;;;5.55;2.90;;;17.80;99.90;;;;;;5001023;28;20507;-61
2023/07/29 04:21:14;;;;;;;9.43;2.72;;;17.70;99.90;;;;;;5010038;28;20042;-61
2023/07/29 04:23:40;;;;;;;6.90;3.00;;;17.70;99.90;;;;;;5008763;28;20072;-62
2023/07/29 04:26:06;;;;;;;6.20;2.33;;;17.70;99.90;;;;;;4987685;28;20049;-63
2023/07/29 04:28:31;;;;;;;6.38;2.75;;;17.70;99.90;;;;;;4998528;28;20048;-63
2023/07/29 04:30:57;;;;;;;4.93;2.78;;;17.70;99.90;;;;;;4997624;28;20116;-62
2023/07/29 04:33:23;;;;;;;6.35;2.55;;;17.70;99.90;;;;;;4992819;28;20124;-62
2023/07/29 04:35:49;;;;;;;6.82;2.92;;;17.70;99.90;;;;;;4991969;28;20045;-62
2023/07/29 04:38:14;;;;;;;7.32;2.58;;;17.80;99.90;;;;;;5003175;28;20676;-62
2023/07/29 04:40:40;;;;;;;6.07;2.65;;;17.70;99.90;;;;;;5006891;28;20052;-62
2023/07/29 04:43:06;;;;;;;5.10;2.55;;;17.70;99.90;;;;;;5002215;28;20064;-62
2023/07/29 04:45:34;;;;;;;8.73;2.80;;;17.80;99.90;;;;;;5008329;28;20044;-63
2023/07/29 04:48:00;;;;;;;9.98;3.15;;;17.80;99.90;;;;;;5006872;28;20030;-62
2023/07/29 04:50:26;;;;;;;6.45;2.63;;;17.80;99.90;;;;;;5006971;28;20409;-62
2023/07/29 04:52:53;;;;;;;5.70;3.08;;;17.70;99.90;;;;;;4986771;28;20468;-62
2023/07/29 04:55:18;;;;;;;8.45;2.67;;;17.80;99.90;;;;;;4991173;28;20041;-62
2023/07/29 04:57:44;;;;;;;9.98;2.42;;;17.80;99.90;;;;;;5000742;28;20464;-61
2023/07/29 05:00:10;;;;;;;7.70;3.00;;;17.80;99.90;;;;;;4986323;28;20042;-62
2023/07/29 05:02:36;;;;;;;9.07;2.92;;;17.80;99.90;;;;;;4982719;28;20037;-61
2023/07/29 05:05:02;;;;;;;8.05;2.72;;;17.80;99.90;;;;;;5008562;28;20546;-63
2023/07/29 05:07:28;;;;;;;7.47;3.13;;;17.80;99.90;;;;;;5001347;28;20084;-63
2023/07/29 05:09:54;;;;;;;11.10;3.67;;;17.90;99.90;;;;;;5006266;28;20069;-61
2023/07/29 05:12:19;;;;;;;8.05;2.90;;;17.90;99.90;;;;;;5005795;28;20393;-61
2023/07/29 05:14:45;;;;;;;9.00;3.10;;;17.90;99.90;;;;;;5006535;28;20045;-62
2023/07/29 05:17:11;;;;;;;5.70;2.92;;;17.90;99.90;;;;;;5001814;28;20034;-62
2023/07/29 05:19:36;;;;;;;6.90;2.75;;;17.90;99.90;;;;;;5006221;28;20038;-61
2023/07/29 05:22:02;;;;;;;6.70;2.63;;;17.90;99.90;;;;;;5001848;28;20100;-61
2023/07/29 05:24:28;;;;;;;9.93;3.50;;;18.00;99.90;;;;;;5006301;28;20046;-61
2023/07/29 05:26:54;;;;;;;8.52;3.30;;;18.00;99.90;;;;;;4981381;28;20042;-63
2023/07/29 05:29:19;;;;;;;6.70;3.33;;;18.00;99.90;;;;;;5006264;28;20524;-61
2023/07/29 05:31:45;;;;;;;7.63;3.35;;;18.00;99.90;;;;;;5009902;28;20038;-65
2023/07/29 05:34:11;;;;;;;7.68;3.35;;;18.00;99.90;;;;;;4987888;28;20077;-61
2023/07/29 05:36:36;;;;;;;8.00;3.45;;;18.00;99.90;;;;;;5006765;28;20049;-63
2023/07/29 05:39:02;;;;;;;6.38;2.78;;;18.00;99.90;;;;;;4986486;28;20133;-61
2023/07/29 05:41:28;;;;;;;8.05;3.08;;;18.10;99.90;;;;;;5010857;28;20477;-61
2023/07/29 05:43:54;;;;;;;8.07;3.55;;;18.10;99.90;;;;;;5004803;28;20105;-63
2023/07/29 05:46:20;;;;;;;7.32;3.28;;;18.10;99.90;;;;;;5006991;28;20133;-62
2023/07/29 05:48:46;;;;;;;6.57;3.42;;;18.10;99.90;;;;;;5006090;28;20651;-60
2023/07/29 05:51:11;;;;;;;12.23;3.58;;;18.10;99.90;;;;;;5005558;28;20080;-61
2023/07/29 05:53:37;;;;;;;9.63;3.72;;;18.10;99.90;;;;;;5008200;28;20876;-61
2023/07/29 05:56:03;;;;;;;7.68;3.22;;;18.10;99.90;;;;;;4987049;28;20036;-62
2023/07/29 05:58:31;;;;;;;8.85;3.58;;;18.20;99.90;;;;;;5008408;28;20101;-62
2023/07/29 06:00:57;;;;;;;9.10;3.25;;;18.20;99.90;;;;;;5011648;28;20037;-61
2023/07/29 06:03:22;;;;;;;7.80;3.88;;;18.20;99.90;;;;;;5003063;28;20129;-64
2023/07/29 06:05:49;;;;;;;9.95;3.10;;;18.30;99.90;;;;;;4983948;28;20124;-61
2023/07/29 06:08:15;;;;;;;9.75;3.00;;;18.30;99.90;;;;;;5004779;28;20175;-63
2023/07/29 06:10:41;;;;;;;7.40;3.20;;;18.40;99.90;;;;;;5004285;28;20037;-61
2023/07/29 06:13:06;;;;;;;10.07;3.53;;;18.50;99.90;;;;;;5002414;28;20474;-60
2023/07/29 06:15:32;;;;;;;11.90;4.30;;;18.60;99.90;;;;;;4987895;28;20077;-60
2023/07/29 06:17:58;;;;;;;10.10;4.47;;;18.60;99.90;;;;;;5005940;28;20056;-60
2023/07/29 06:20:23;;;;;;;7.32;3.33;;;18.60;99.90;;;;;;5012088;28;20044;-59
2023/07/29 06:22:49;;;;;;;10.30;3.90;;;18.70;99.90;;;;;;5008466;28;20037;-60
2023/07/29 06:25:18;;;;;;;8.48;3.65;;;18.70;99.90;;;;;;5010468;28;20037;-60
2023/07/29 06:27:44;;;;;;;13.05;3.67;;;18.70;99.90;;;;;;5006161;28;20037;-58
2023/07/29 06:30:10;;;;;;;10.05;3.40;;;18.80;99.90;;;;;;5007296;28;20046;-60
2023/07/29 06:32:35;;;;;;;10.82;4.18;;;18.80;99.90;;;;;;4995273;28;20045;-60
2023/07/29 06:35:01;;;;;;;8.73;3.20;;;19.10;99.90;;;;;;4990460;28;20041;-60
2023/07/29 06:37:27;;;;;;;11.68;4.55;;;19.00;99.90;;;;;;5003271;28;20076;-60
2023/07/29 06:39:53;;;;;;;12.55;4.28;;;19.10;99.90;;;;;;4987641;28;20462;-60
2023/07/29 06:42:18;;;;;;;9.52;3.47;;;19.20;99.90;;;;;;4985980;28;20065;-58
2023/07/29 06:44:45;;;;;;;11.55;3.65;;;19.20;99.90;;;;;;4992801;28;20033;-60
2023/07/29 06:47:11;;;;;;;9.02;3.67;;;19.30;99.90;;;;;;4988992;28;20060;-60
2023/07/29 06:49:37;;;;;;;7.40;3.65;;;19.30;99.90;;;;;;4990398;28;20045;-61
2023/07/29 06:52:03;;;;;;;7.57;3.63;;;19.30;99.90;;;;;;5012533;28;20034;-60
2023/07/29 06:54:32;;;;;;;7.47;3.25;;;19.20;99.90;;;;;;5012710;28;20655;-60
2023/07/29 06:56:57;;;;;;;11.88;3.90;;;19.10;99.90;;;;;;5005947;28;20042;-58
2023/07/29 06:59:24;;;;;;;8.02;4.00;;;19.10;99.90;;;;;;4988613;28;20046;-60
2023/07/29 07:01:50;;;;;;;11.18;3.95;;;19.10;99.90;;;;;;5002286;28;20513;-60
2023/07/29 07:04:16;;;;;;;10.80;3.35;;;19.10;99.90;;;;;;5005444;28;20045;-58
2023/07/29 07:06:41;;;;;;;12.00;3.22;;;19.10;99.90;;;;;;5003981;28;20185;-59
2023/07/29 07:09:07;;;;;;;11.02;3.17;;;19.10;99.90;;;;;;5001801;28;20102;-60
2023/07/29 07:11:33;;;;;;;6.68;3.17;;;19.10;99.90;;;;;;5010962;28;20037;-60
2023/07/29 07:13:59;;;;;;;8.90;3.38;;;19.10;99.90;;;;;;4991769;28;20042;-60
2023/07/29 07:16:25;;;;;;;10.95;3.78;;;19.10;99.90;;;;;;5006752;28;20505;-61
2023/07/29 07:18:51;;;;;;;7.95;3.40;;;19.20;99.90;;;;;;5004805;28;20050;-59
2023/07/29 07:21:16;;;;;;;8.00;2.95;;;19.30;99.90;;;;;;5008949;28;20049;-60
2023/07/29 07:23:42;;;;;;;8.90;3.60;;;19.30;99.90;;;;;;4992985;28;20141;-60
2023/07/29 07:26:08;;;;;;;7.57;3.65;;;19.30;99.90;;;;;;5007431;28;20073;-61
2023/07/29 07:28:34;;;;;;;8.90;4.03;;;19.30;99.90;;;;;;4988394;28;20042;-61
2023/07/29 07:30:59;;;;;;;9.20;3.55;;;19.40;99.90;;;;;;5012341;28;20117;-60
2023/07/29 07:33:25;;;;;;;9.18;4.00;;;19.40;99.90;;;;;;4999457;28;20045;-59
2023/07/29 07:35:51;;;;;;;10.18;3.03;;;19.50;99.90;;;;;;4989783;28;20033;-61
2023/07/29 07:38:16;;;;;;;8.32;2.72;;;19.60;99.90;;;;;;5004130;28;20080;-61
2023/07/29 07:40:42;;;;;;;9.60;2.95;;;19.70;99.90;;;;;;5010052;28;20046;-61
2023/07/29 07:43:08;;;;;;;9.98;3.45;;;19.90;99.90;;;;;;5006812;28;22262;-61
2023/07/29 07:45:36;;;;;;;6.43;3.03;;;20.00;99.90;;;;;;4988852;28;20042;-61
2023/07/29 07:48:02;;;;;;;11.38;3.95;;;20.20;99.90;;;;;;4996764;28;20045;-61
2023/07/29 07:50:31;;;;;;;9.93;3.13;;;20.20;99.90;;;;;;5010987;28;20042;-62
2023/07/29 07:52:58;;;;;;;7.60;3.20;;;20.20;99.90;;;;;;5003576;28;20038;-60
2023/07/29 07:55:23;;;;;;;6.63;2.63;;;20.00;99.90;;;;;;5005089;28;20562;-61
2023/07/29 07:57:49;;;;;;;8.00;2.65;;;20.00;99.90;;;;;;4999722;28;20037;-60
2023/07/29 08:00:19;;;;;;;10.02;2.90;;;20.10;99.90;;;;;;5006748;28;20034;-60
2023/07/29 08:02:44;;;;;;;7.97;2.30;;;20.10;99.90;;;;;;4998511;28;20073;-61
2023/07/29 08:05:10;;;;;;;8.05;2.40;;;20.20;99.90;;;;;;4981988;28;20486;-61
2023/07/29 08:07:36;;;;;;;7.60;2.80;;;20.20;99.90;;;;;;4998285;28;20048;-61
2023/07/29 08:10:02;;;;;;;7.53;2.47;;;20.20;99.90;;;;;;5001174;28;20048;-58
2023/07/29 08:12:27;;;;;;;8.23;2.40;;;20.20;99.90;;;;;;5001773;28;20528;-61
2023/07/29 08:14:53;;;;;;;9.93;2.55;;;20.30;99.90;;;;;;5005719;28;20064;-60
2023/07/29 08:17:22;;;;;;;9.60;2.50;;;20.30;99.90;;;;;;5008591;28;20060;-60
2023/07/29 08:19:47;;;;;;;6.28;2.58;;;20.30;99.90;;;;;;4983877;28;20053;-61
2023/07/29 08:22:17;;;;;;;6.28;2.50;;;20.40;99.90;;;;;;4995622;28;20509;-60
2023/07/29 08:24:43;;;;;;;7.63;2.58;;;20.30;99.90;;;;;;5004231;28;20046;-61
2023/07/29 08:27:09;;;;;;;6.97;2.55;;;20.30;99.90;;;;;;5007805;28;20100;-59
2023/07/29 08:29:34;;;;;;;7.82;2.50;;;20.30;99.90;;;;;;4999543;28;20050;-59
2023/07/29 08:32:00;;;;;;;8.27;2.80;;;20.30;99.90;;;;;;4996364;28;20548;-60
2023/07/29 08:34:26;;;;;;;7.88;2.95;;;20.20;99.90;;;;;;5004185;28;20120;-60
2023/07/29 08:36:51;;;;;;;6.25;2.90;;;20.20;99.90;;;;;;5007137;28;20400;-60
2023/07/29 08:39:17;;;;;;;9.63;2.70;;;20.20;99.90;;;;;;5005256;28;20043;-60
2023/07/29 08:41:51;;;;;;;9.45;2.50;;;20.20;99.90;;;;;;4988112;28;20041;-60
2023/07/29 08:44:23;;;;;;;5.72;2.70;;;20.30;99.90;;;;;;5003328;28;20046;-59
2023/07/29 08:46:50;;;;;;;4.40;2.17;;;20.40;99.90;;;;;;5002415;28;20033;-59
2023/07/29 08:49:19;;;;;;;6.40;2.45;;;20.40;99.90;;;;;;5006202;28;20045;-61
2023/07/29 08:51:48;;;;;;;8.15;2.53;;;20.40;99.90;;;;;;5009433;28;20092;-60
2023/07/29 08:54:14;;;;;;;3.35;1.85;;;20.50;99.90;;;;;;5010601;28;20046;-60
2023/07/29 08:56:42;;;;;;;5.93;1.90;;;20.50;99.90;;;;;;5013905;28;20041;-60
2023/07/29 08:59:08;;;;;;;4.53;2.10;;;20.50;99.90;;;;;;5003675;28;20042;-59
2023/07/29 09:01:34;;;;;;;5.22;2.33;;;20.60;99.90;;;;;;5002827;28;20049;-60
2023/07/29 09:04:00;;;;;;;5.20;1.90;;;20.60;99.90;;;;;;5006710;28;20502;-61
2023/07/29 09:06:27;;;;;;;6.55;2.35;;;20.70;99.90;;;;;;5006441;28;20068;-60
2023/07/29 09:08:56;;;;;;;5.07;2.00;;;20.60;99.90;;;;;;5002580;28;20485;-60
2023/07/29 09:11:23;;;;;;;7.38;2.08;;;20.70;99.90;;;;;;5007812;28;20041;-60
2023/07/29 09:13:48;;;;;;;7.32;2.53;;;20.80;99.90;;;;;;5006266;28;20038;-60
2023/07/29 09:16:14;;;;;;;4.97;2.38;;;20.80;99.90;;;;;;4997661;28;20551;-61
2023/07/29 09:18:40;;;;;;;4.68;2.28;;;20.80;99.90;;;;;;5004414;28;20506;-58
2023/07/29 09:21:09;;;;;;;6.13;2.40;;;20.80;99.90;;;;;;4973718;28;20045;-60
2023/07/29 09:23:42;;;;;;;7.20;2.25;;;20.90;99.90;;;;;;5006626;28;20036;-61
2023/07/29 09:26:08;;;;;;;4.47;2.10;;;21.00;99.90;;;;;;5008587;28;20128;-61
2023/07/29 09:28:38;;;;;;;6.57;2.05;;;21.10;99.90;;;;;;5006731;28;20041;-59
2023/07/29 09:31:04;;;;;;;5.30;2.20;;;21.00;99.90;;;;;;5003046;28;20121;-60
2023/07/29 09:33:35;;;;;;;5.43;1.65;;;21.00;99.90;;;;;;5003404;28;20040;-59
2023/07/29 09:36:01;;;;;;;6.05;2.47;;;21.00;99.90;;;;;;5003794;28;20056;-59
2023/07/29 09:38:28;;;;;;;5.13;1.88;;;20.90;99.90;;;;;;5014363;28;20453;-60
2023/07/29 09:40:58;;;;;;;4.75;1.80;;;21.00;99.90;;;;;;4989805;28;20524;-59
2023/07/29 09:43:30;;;;;;;8.20;2.63;;;20.90;99.90;;;;;;5004340;28;20049;-58
2023/07/29 09:46:03;;;;;;;8.33;2.90;;;21.00;99.90;;;;;;4985781;28;20042;-59
2023/07/29 09:48:38;;;;;;;6.57;2.40;;;21.10;99.90;;;;;;5009345;28;20037;-59
2023/07/29 09:51:14;;;;;;;5.65;2.00;;;21.30;99.90;;;;;;5006173;28;20080;-59
2023/07/29 09:53:45;;;;;;;4.97;2.65;;;21.40;99.90;;;;;;5007283;28;20087;-59
2023/07/29 09:56:12;;;;;;;5.88;1.92;;;21.40;99.90;;;;;;5014383;28;20041;-60
2023/07/29 09:58:39;;;;;;;3.63;1.77;;;21.50;99.90;;;;;;5010679;28;20030;-59
2023/07/29 10:01:06;;;;;;;5.88;2.00;;;21.50;99.90;;;;;;5009833;28;20038;-59
2023/07/29 10:03:34;;;;;;;5.57;2.00;;;21.60;99.90;;;;;;5009302;28;20052;-60
2023/07/29 10:06:02;;;;;;;4.53;1.60;;;21.60;99.90;;;;;;5013343;28;20060;-59
2023/07/29 10:08:38;;;;;;;5.70;1.75;;;21.60;99.90;;;;;;5001700;28;20170;-60
2023/07/29 10:11:06;;;;;;;5.90;1.83;;;21.50;99.90;;;;;;4982034;28;20092;-60
2023/07/29 10:13:33;;;;;;;4.55;1.70;;;21.40;99.90;;;;;;4968951;28;20053;-60
2023/07/29 10:16:02;;;;;;;6.35;1.98;;;21.40;99.90;;;;;;5002971;28;20053;-58
2023/07/29 10:18:29;;;;;;;5.68;1.83;;;21.70;99.90;;;;;;5006475;28;20370;-59
2023/07/29 10:20:57;;;;;;;4.68;1.63;;;21.80;99.90;;;;;;5007165;28;20074;-59
2023/07/29 10:23:24;;;;;;;3.40;1.70;;;21.90;99.90;;;;;;4985794;28;20104;-58
2023/07/29 10:25:55;;;;;;;4.13;1.48;;;22.00;99.90;;;;;;4986948;28;20050;-59
2023/07/29 10:28:25;;;;;;;7.80;4.28;;;22.10;99.90;;;;;;4997577;28;20049;-59
2023/07/29 10:30:52;;;;;;;6.35;2.95;;;22.30;99.90;;;;;;5004200;28;20045;-57
2023/07/29 10:33:17;;;;;;;4.07;2.20;;;22.40;99.90;;;;;;5009956;28;20582;-59
2023/07/29 10:35:44;;;;;;;3.05;1.58;;;22.40;99.90;;;;;;5013764;28;20045;-60
2023/07/29 10:38:10;;;;;;;6.20;2.50;;;22.20;99.90;;;;;;5012030;28;20042;-57
2023/07/29 10:40:47;;;;;;;5.47;1.88;;;22.00;99.90;;;;;;5003374;28;20037;-59
2023/07/29 10:43:32;;;;;;;6.18;2.10;;;21.90;99.90;;;;;;5004793;28;20097;-59
2023/07/29 10:46:15;;;;;;;3.72;1.92;;;21.90;99.90;;;;;;5001108;28;20038;-59
2023/07/29 10:48:41;;;;;;;3.88;1.30;;;21.80;99.90;;;;;;4976796;28;20045;-61
2023/07/29 10:51:37;;;;;;;4.32;1.52;;;21.90;99.90;;;;;;4985899;28;20046;-61
2023/07/29 10:54:14;;;;;;;3.15;1.65;;;21.90;99.90;;;;;;4971075;28;20085;-60
2023/07/29 10:56:41;;;;;;;3.80;1.42;;;22.10;99.90;;;;;;5008767;28;20034;-58
2023/07/29 10:59:16;;;;;;;2.72;1.40;;;22.20;99.90;;;;;;4982477;28;20143;-59
2023/07/29 11:01:50;;;;;;;4.38;1.30;;;22.20;99.90;;;;;;5000849;28;20072;-59
2023/07/29 11:04:25;;;;;;;10.32;5.00;;;21.90;99.90;;;;;;4994620;28;20405;-60
2023/07/29 11:07:07;;;;;;;4.53;1.90;;;21.80;99.90;;;;;;5008304;28;20045;-60
2023/07/29 11:09:48;;;;;;;4.70;2.05;;;21.40;99.90;;;;;;4987683;28;20081;-61
2023/07/29 11:12:35;;;;;;;5.88;2.22;;;21.20;99.90;;;;;;4982327;28;20048;-60
2023/07/29 11:15:11;;;;;;;7.70;2.50;;;21.00;99.90;;;;;;4985227;28;20096;-61
2023/07/29 11:17:42;;;;;;;3.88;2.15;;;20.90;99.90;;;;;;5001476;28;20061;-60
2023/07/29 11:20:09;;;;;;;5.80;1.90;;;20.90;99.90;;;;;;5002380;28;20084;-59
2023/07/29 11:22:36;;;;;;;6.22;2.00;;;21.00;99.90;;;;;;4985458;28;20042;-59
2023/07/29 11:25:02;;;;;;;3.38;1.73;;;21.10;99.90;;;;;;5002558;28;20049;-58
2023/07/29 11:27:28;;;;;;;3.70;1.90;;;20.90;99.90;;;;;;4985359;28;20654;-62
2023/07/29 11:30:02;;;;;;;7.68;2.63;;;20.80;99.90;;;;;;5005890;28;20040;-62
2023/07/29 11:32:28;;;;;;;5.30;2.60;;;20.10;99.90;;;;;;5004773;28;20046;-59
2023/07/29 11:34:53;;;;;;;6.57;2.35;;;19.70;99.90;;;;;;5007684;28;20072;-59
2023/07/29 11:37:21;;;;;;;6.72;2.58;;;19.60;99.90;;;;;;5001767;28;20604;-60
2023/07/29 11:39:47;;;;;;;7.07;2.55;;;19.70;99.90;;;;;;5010197;28;20033;-59
2023/07/29 11:42:16;;;;;;;4.28;2.15;;;19.80;99.90;;;;;;5009379;28;20042;-60
2023/07/29 11:44:42;;;;;;;6.13;2.80;;;19.90;99.90;;;;;;5008490;28;20053;-59
2023/07/29 11:47:09;;;;;;;4.47;2.35;;;19.90;99.90;;;;;;4976252;28;20091;-59
2023/07/29 11:49:35;;;;;;;5.00;2.40;;;20.40;99.90;;;;;;5008002;28;20045;-59
2023/07/29 11:52:03;;;;;;;4.60;2.05;;;20.60;99.90;;;;;;5016766;28;20478;-58
2023/07/29 11:54:29;;;;;;;11.52;2.80;;;20.90;99.90;;;;;;5009344;28;20101;-60
2023/07/29 11:56:55;;;;;;;6.35;2.42;;;20.80;99.90;;;;;;5003811;28;20046;-60
2023/07/29 11:59:21;;;;;;;5.85;2.47;;;20.80;99.90;;;;;;4987782;28;20100;-59
2023/07/29 12:01:47;;;;;;;5.05;2.50;;;20.80;99.90;;;;;;5006137;28;20033;-60
2023/07/29 12:04:13;;;;;;;4.55;2.30;;;20.70;99.90;;;;;;5007874;28;20403;-59
2023/07/29 12:06:40;;;;;;;3.92;2.03;;;20.70;99.90;;;;;;5015640;28;20056;-59
2023/07/29 12:09:07;;;;;;;4.43;2.25;;;20.60;99.90;;;;;;5006969;28;20112;-60
2023/07/29 12:11:36;;;;;;;6.45;2.40;;;20.60;99.90;;;;;;5009548;28;20034;-60
2023/07/29 12:14:02;;;;;;;4.93;2.15;;;20.40;99.90;;;;;;4991651;28;20036;-59
2023/07/29 12:16:34;;;;;;;5.75;2.08;;;20.50;99.90;;;;;;5005587;28;20042;-60
2023/07/29 12:19:00;;;;;;;4.72;1.88;;;20.60;99.90;;;;;;4990841;28;20038;-59
2023/07/29 12:21:26;;;;;;;4.93;2.80;;;20.50;99.90;;;;;;4991631;28;20041;-59
2023/07/29 12:23:52;;;;;;;5.35;2.13;;;20.30;99.90;;;;;;4989205;28;20133;-60
2023/07/29 12:26:18;;;;;;;3.97;2.08;;;20.50;99.90;;;;;;5013388;28;20041;-62
2023/07/29 12:28:47;;;;;;;6.85;1.73;;;20.50;99.90;;;;;;4997319;28;20089;-62
2023/07/29 12:31:13;;;;;;;5.47;2.05;;;20.40;99.90;;;;;;4973025;28;20064;-61
2023/07/29 12:33:42;;;;;;;3.65;1.92;;;20.40;99.90;;;;;;4997647;28;20046;-60
2023/07/29 12:36:07;;;;;;;11.35;3.25;;;20.50;99.90;;;;;;5008921;28;20125;-60
2023/07/29 12:38:36;;;;;;;5.38;2.30;;;20.50;99.90;;;;;;4981652;28;20134;-61
2023/07/29 12:41:02;;;;;;;7.68;2.38;;;20.60;99.90;;;;;;5006961;28;20110;-60
2023/07/29 12:43:28;;;;;;;5.85;2.10;;;20.40;99.90;;;;;;4983788;28;20141;-61